This is the latest recevied weather packets stored in our database for station/object AC4AG. If no packets are shown the sender has not sent any weather packets the latest 10 day(s).
| Time | Temp. | Humidity | Pressure | Rain* | Wind** | Luminosity | Snow |
|---|---|---|---|---|---|---|---|
| 1777672499 | 15° C | 53% | 1012.5 hPa | 0 mm | - | 398 W/m² | - |
| 1777672195 | 15° C | 55% | 1012.9 hPa | 0 mm | - | 381 W/m² | - |
| 1777671890 | 15° C | 55% | 1012.5 hPa | 0 mm | - | 220 W/m² | - |
| 1777671586 | 15° C | 56% | 1012.9 hPa | 0 mm | - | 279 W/m² | - |
| 1777671284 | 15.56° C | 58% | 1013 hPa | 0 mm | - | 426 W/m² | - |
| 1777670978 | 15.56° C | 57% | 1012.9 hPa | 0 mm | - | 357 W/m² | - |
| 1777670676 | 15° C | 60% | 1012.8 hPa | 0 mm | - | 380 W/m² | - |
| 1777670372 | 14.44° C | 61% | 1012.9 hPa | 0 mm | - | 152 W/m² | - |
| 1777670070 | 14.44° C | 61% | 1013 hPa | 0 mm | - | 142 W/m² | - |
| 1777669767 | 15° C | 61% | 1013 hPa | 0 mm | - | 135 W/m² | - |
| 1777669464 | 15.56° C | 58% | 1012.8 hPa | 0 mm | - | 212 W/m² | - |
| 1777669161 | 15.56° C | 58% | 1013.1 hPa | 0 mm | - | 270 W/m² | - |
| 1777668858 | 15.56° C | 60% | 1012.7 hPa | 0 mm | - | 292 W/m² | - |
| 1777668555 | 16.11° C | 60% | 1013.2 hPa | 0 mm | - | 702 W/m² | - |
| 1777668250 | 15.56° C | 62% | 1013 hPa | 0 mm | - | 397 W/m² | - |
| 1777667946 | 15° C | 62% | 1013 hPa | 0 mm | - | 349 W/m² | - |
| 1777667644 | 15.56° C | 60% | 1013 hPa | 0 mm | - | 285 W/m² | - |
| 1777667341 | 15° C | 62% | 1013 hPa | 0 mm | - | 344 W/m² | - |
| 1777667038 | 15° C | 63% | 1013.3 hPa | 0 mm | - | 595 W/m² | - |
| 1777666735 | 15° C | 63% | 1013.2 hPa | 0 mm | - | 193 W/m² | - |
| 1777666432 | 15° C | 64% | 1013.2 hPa | 0 mm | - | 283 W/m² | - |
| 1777666128 | 15° C | 64% | 1013.3 hPa | 0 mm | - | 235 W/m² | - |
| 1777665825 | 15° C | 66% | 1013.2 hPa | 0 mm | - | 214 W/m² | - |
| 1777665523 | 15° C | 65% | 1013.3 hPa | 0 mm | - | 162 W/m² | - |
| 1777665218 | 15° C | 66% | 1013.3 hPa | 0 mm | - | 189 W/m² | - |
* Rain latest hour (hover to see other rain measurements)
** Current wind speed in m/s (hover to see current wind gust speed)